<?xml version="1.0" encoding="UTF-8" standalone="no" ?>
<gpx xmlns="http://www.topografix.com/GPX/1/1" xmlns:xsi="http://www.w3.org/2001/XMLSchema-instance" xsi:schemaLocation="http://www.topografix.com/GPX/1/1 http://www.topografix.com/GPX/1/1/gpx.xsd" version="1.1" creator="VisuGPX - https://www.visugpx.com">
  <metadata>
    <name>Course à pied dans l'après-midi</name>
  </metadata>
  <trk>
    <name><![CDATA[Course à pied dans l'après-midi_1]]></name>
    <trkseg>
      <trkpt lat="48.71249" lon="7.18997">
        <ele>355.5</ele>
        <time>2024-02-25T15:03:19Z</time>
      </trkpt>
      <trkpt lat="48.71232" lon="7.19006">
        <ele>355.7</ele>
        <time>2024-02-25T15:03:32Z</time>
      </trkpt>
      <trkpt lat="48.7123" lon="7.1901">
        <ele>355.7</ele>
        <time>2024-02-25T15:03:34Z</time>
      </trkpt>
      <trkpt lat="48.7123" lon="7.19007">
        <ele>355.4</ele>
        <time>2024-02-25T15:03:36Z</time>
      </trkpt>
      <trkpt lat="48.71247" lon="7.1901">
        <ele>357.1</ele>
        <time>2024-02-25T15:03:47Z</time>
      </trkpt>
      <trkpt lat="48.71264" lon="7.19021">
        <ele>358.7</ele>
        <time>2024-02-25T15:04:00Z</time>
      </trkpt>
      <trkpt lat="48.71283" lon="7.19025">
        <ele>359.7</ele>
        <time>2024-02-25T15:04:10Z</time>
      </trkpt>
      <trkpt lat="48.71301" lon="7.19029">
        <ele>360.3</ele>
        <time>2024-02-25T15:04:19Z</time>
      </trkpt>
      <trkpt lat="48.71318" lon="7.19016">
        <ele>360.1</ele>
        <time>2024-02-25T15:04:28Z</time>
      </trkpt>
      <trkpt lat="48.71335" lon="7.19">
        <ele>359.6</ele>
        <time>2024-02-25T15:04:36Z</time>
      </trkpt>
      <trkpt lat="48.71349" lon="7.18984">
        <ele>359.1</ele>
        <time>2024-02-25T15:04:43Z</time>
      </trkpt>
      <trkpt lat="48.71354" lon="7.18976">
        <ele>359</ele>
        <time>2024-02-25T15:04:46Z</time>
      </trkpt>
      <trkpt lat="48.71352" lon="7.1897">
        <ele>358.8</ele>
        <time>2024-02-25T15:04:48Z</time>
      </trkpt>
      <trkpt lat="48.71349" lon="7.18968">
        <ele>358.6</ele>
        <time>2024-02-25T15:04:50Z</time>
      </trkpt>
      <trkpt lat="48.71334" lon="7.18986">
        <ele>359.1</ele>
        <time>2024-02-25T15:04:57Z</time>
      </trkpt>
      <trkpt lat="48.7132" lon="7.19004">
        <ele>360</ele>
        <time>2024-02-25T15:05:04Z</time>
      </trkpt>
      <trkpt lat="48.71304" lon="7.19019">
        <ele>360.4</ele>
        <time>2024-02-25T15:05:12Z</time>
      </trkpt>
      <trkpt lat="48.71288" lon="7.19034">
        <ele>360.8</ele>
        <time>2024-02-25T15:05:20Z</time>
      </trkpt>
      <trkpt lat="48.71272" lon="7.19053">
        <ele>361.1</ele>
        <time>2024-02-25T15:05:29Z</time>
      </trkpt>
      <trkpt lat="48.71266" lon="7.19072">
        <ele>361.8</ele>
        <time>2024-02-25T15:05:36Z</time>
      </trkpt>
      <trkpt lat="48.71275" lon="7.19098">
        <ele>363.5</ele>
        <time>2024-02-25T15:05:45Z</time>
      </trkpt>
      <trkpt lat="48.71275" lon="7.19125">
        <ele>364.7</ele>
        <time>2024-02-25T15:05:53Z</time>
      </trkpt>
      <trkpt lat="48.71265" lon="7.19151">
        <ele>364.8</ele>
        <time>2024-02-25T15:06:01Z</time>
      </trkpt>
      <trkpt lat="48.71254" lon="7.19174">
        <ele>364.8</ele>
        <time>2024-02-25T15:06:09Z</time>
      </trkpt>
      <trkpt lat="48.71242" lon="7.19198">
        <ele>364.4</ele>
        <time>2024-02-25T15:06:17Z</time>
      </trkpt>
      <trkpt lat="48.71231" lon="7.19221">
        <ele>364</ele>
        <time>2024-02-25T15:06:24Z</time>
      </trkpt>
      <trkpt lat="48.71238" lon="7.19245">
        <ele>363.6</ele>
        <time>2024-02-25T15:06:31Z</time>
      </trkpt>
      <trkpt lat="48.71227" lon="7.19268">
        <ele>362.9</ele>
        <time>2024-02-25T15:06:39Z</time>
      </trkpt>
      <trkpt lat="48.71214" lon="7.19291">
        <ele>361.8</ele>
        <time>2024-02-25T15:06:47Z</time>
      </trkpt>
      <trkpt lat="48.712" lon="7.19309">
        <ele>360.7</ele>
        <time>2024-02-25T15:06:55Z</time>
      </trkpt>
      <trkpt lat="48.71181" lon="7.19301">
        <ele>356.6</ele>
        <time>2024-02-25T15:07:03Z</time>
      </trkpt>
      <trkpt lat="48.71167" lon="7.19283">
        <ele>354.9</ele>
        <time>2024-02-25T15:07:12Z</time>
      </trkpt>
      <trkpt lat="48.71146" lon="7.19279">
        <ele>352.8</ele>
        <time>2024-02-25T15:07:19Z</time>
      </trkpt>
      <trkpt lat="48.7113" lon="7.19265">
        <ele>351</ele>
        <time>2024-02-25T15:07:26Z</time>
      </trkpt>
      <trkpt lat="48.71114" lon="7.19245">
        <ele>348.9</ele>
        <time>2024-02-25T15:07:33Z</time>
      </trkpt>
      <trkpt lat="48.7111" lon="7.19217">
        <ele>346.6</ele>
        <time>2024-02-25T15:07:43Z</time>
      </trkpt>
      <trkpt lat="48.71108" lon="7.19187">
        <ele>349.3</ele>
        <time>2024-02-25T15:07:52Z</time>
      </trkpt>
      <trkpt lat="48.71112" lon="7.19162">
        <ele>350.8</ele>
        <time>2024-02-25T15:08:00Z</time>
      </trkpt>
      <trkpt lat="48.71121" lon="7.19137">
        <ele>350.8</ele>
        <time>2024-02-25T15:08:08Z</time>
      </trkpt>
      <trkpt lat="48.71129" lon="7.19111">
        <ele>350.6</ele>
        <time>2024-02-25T15:08:16Z</time>
      </trkpt>
      <trkpt lat="48.71139" lon="7.19088">
        <ele>351.2</ele>
        <time>2024-02-25T15:08:23Z</time>
      </trkpt>
      <trkpt lat="48.71152" lon="7.19061">
        <ele>350.3</ele>
        <time>2024-02-25T15:08:31Z</time>
      </trkpt>
      <trkpt lat="48.71171" lon="7.1905">
        <ele>351.1</ele>
        <time>2024-02-25T15:08:40Z</time>
      </trkpt>
      <trkpt lat="48.71187" lon="7.19039">
        <ele>352.5</ele>
        <time>2024-02-25T15:08:48Z</time>
      </trkpt>
      <trkpt lat="48.71203" lon="7.19019">
        <ele>353.3</ele>
        <time>2024-02-25T15:08:56Z</time>
      </trkpt>
      <trkpt lat="48.71219" lon="7.19002">
        <ele>354.2</ele>
        <time>2024-02-25T15:09:04Z</time>
      </trkpt>
      <trkpt lat="48.71236" lon="7.18995">
        <ele>355.7</ele>
        <time>2024-02-25T15:09:12Z</time>
      </trkpt>
      <trkpt lat="48.71239" lon="7.18992">
        <ele>355.6</ele>
        <time>2024-02-25T15:09:14Z</time>
      </trkpt>
      <trkpt lat="48.71257" lon="7.18983">
        <ele>355.5</ele>
        <time>2024-02-25T15:09:22Z</time>
      </trkpt>
      <trkpt lat="48.71259" lon="7.18981">
        <ele>355.5</ele>
        <time>2024-02-25T15:09:30Z</time>
      </trkpt>
      <trkpt lat="48.71246" lon="7.19001">
        <ele>355.5</ele>
        <time>2024-02-25T15:09:40Z</time>
      </trkpt>
      <trkpt lat="48.71246" lon="7.19002">
        <ele>355.5</ele>
        <time>2024-02-25T15:09:41Z</time>
      </trkpt>
      <trkpt lat="48.71255" lon="7.18995">
        <ele>355.5</ele>
        <time>2024-02-25T15:11:06Z</time>
      </trkpt>
      <trkpt lat="48.71256" lon="7.18994">
        <ele>355.5</ele>
        <time>2024-02-25T15:11:07Z</time>
      </trkpt>
      <trkpt lat="48.71271" lon="7.18976">
        <ele>355.3</ele>
        <time>2024-02-25T15:11:16Z</time>
      </trkpt>
      <trkpt lat="48.71286" lon="7.18958">
        <ele>355.1</ele>
        <time>2024-02-25T15:11:24Z</time>
      </trkpt>
      <trkpt lat="48.71299" lon="7.1894">
        <ele>355.1</ele>
        <time>2024-02-25T15:11:32Z</time>
      </trkpt>
      <trkpt lat="48.71315" lon="7.18925">
        <ele>355</ele>
        <time>2024-02-25T15:11:40Z</time>
      </trkpt>
      <trkpt lat="48.7133" lon="7.18908">
        <ele>355.2</ele>
        <time>2024-02-25T15:11:48Z</time>
      </trkpt>
      <trkpt lat="48.71347" lon="7.1889">
        <ele>355.3</ele>
        <time>2024-02-25T15:11:56Z</time>
      </trkpt>
      <trkpt lat="48.71364" lon="7.18874">
        <ele>355.5</ele>
        <time>2024-02-25T15:12:04Z</time>
      </trkpt>
      <trkpt lat="48.71378" lon="7.18855">
        <ele>355.8</ele>
        <time>2024-02-25T15:12:12Z</time>
      </trkpt>
      <trkpt lat="48.71393" lon="7.18838">
        <ele>356.1</ele>
        <time>2024-02-25T15:12:20Z</time>
      </trkpt>
      <trkpt lat="48.71409" lon="7.18827">
        <ele>356.6</ele>
        <time>2024-02-25T15:12:28Z</time>
      </trkpt>
      <trkpt lat="48.71412" lon="7.18829">
        <ele>356.7</ele>
        <time>2024-02-25T15:12:29Z</time>
      </trkpt>
      <trkpt lat="48.71424" lon="7.18853">
        <ele>357.7</ele>
        <time>2024-02-25T15:12:37Z</time>
      </trkpt>
      <trkpt lat="48.71436" lon="7.18876">
        <ele>358.7</ele>
        <time>2024-02-25T15:12:45Z</time>
      </trkpt>
      <trkpt lat="48.71448" lon="7.18899">
        <ele>359.7</ele>
        <time>2024-02-25T15:12:54Z</time>
      </trkpt>
      <trkpt lat="48.71454" lon="7.18912">
        <ele>360.2</ele>
        <time>2024-02-25T15:13:01Z</time>
      </trkpt>
      <trkpt lat="48.71461" lon="7.1889">
        <ele>360.9</ele>
        <time>2024-02-25T15:13:09Z</time>
      </trkpt>
      <trkpt lat="48.71463" lon="7.18886">
        <ele>361</ele>
        <time>2024-02-25T15:13:11Z</time>
      </trkpt>
      <trkpt lat="48.71459" lon="7.18882">
        <ele>361.2</ele>
        <time>2024-02-25T15:13:14Z</time>
      </trkpt>
      <trkpt lat="48.71456" lon="7.18885">
        <ele>361.3</ele>
        <time>2024-02-25T15:13:16Z</time>
      </trkpt>
      <trkpt lat="48.71456" lon="7.18914">
        <ele>361.9</ele>
        <time>2024-02-25T15:13:25Z</time>
      </trkpt>
      <trkpt lat="48.71465" lon="7.18938">
        <ele>362.5</ele>
        <time>2024-02-25T15:13:33Z</time>
      </trkpt>
      <trkpt lat="48.71475" lon="7.18965">
        <ele>363.2</ele>
        <time>2024-02-25T15:13:42Z</time>
      </trkpt>
      <trkpt lat="48.71483" lon="7.18989">
        <ele>363.8</ele>
        <time>2024-02-25T15:13:50Z</time>
      </trkpt>
      <trkpt lat="48.71484" lon="7.18996">
        <ele>364</ele>
        <time>2024-02-25T15:13:52Z</time>
      </trkpt>
      <trkpt lat="48.71471" lon="7.19016">
        <ele>364</ele>
        <time>2024-02-25T15:14:01Z</time>
      </trkpt>
      <trkpt lat="48.71455" lon="7.19031">
        <ele>364</ele>
        <time>2024-02-25T15:14:09Z</time>
      </trkpt>
      <trkpt lat="48.71438" lon="7.19048">
        <ele>364.2</ele>
        <time>2024-02-25T15:14:17Z</time>
      </trkpt>
      <trkpt lat="48.71431" lon="7.19054">
        <ele>364.3</ele>
        <time>2024-02-25T15:14:21Z</time>
      </trkpt>
    </trkseg>
  </trk>
</gpx>